sensor_id;sensor_type;location;lat;lon;timestamp;temperature;humidity
66568;DHT22;53422;49.296;6.900;2024-02-16T00:00:03;9.70;99.90
66568;DHT22;53422;49.296;6.900;2024-02-16T00:02:29;9.70;99.90
66568;DHT22;53422;49.296;6.900;2024-02-16T00:04:54;9.70;99.90
66568;DHT22;53422;49.296;6.900;2024-02-16T00:07:20;9.70;99.90
66568;DHT22;53422;49.296;6.900;2024-02-16T00:09:46;9.70;99.90
66568;DHT22;53422;49.296;6.900;2024-02-16T00:12:12;9.70;99.90
66568;DHT22;53422;49.296;6.900;2024-02-16T00:14:38;9.80;99.90
66568;DHT22;53422;49.296;6.900;2024-02-16T00:17:04;9.80;99.90
66568;DHT22;53422;49.296;6.900;2024-02-16T00:19:29;9.70;99.90
66568;DHT22;53422;49.296;6.900;2024-02-16T00:21:55;9.70;99.90
66568;DHT22;53422;49.296;6.900;2024-02-16T00:24:21;9.80;99.90
66568;DHT22;53422;49.296;6.900;2024-02-16T00:26:47;9.80;99.90
66568;DHT22;53422;49.296;6.900;2024-02-16T00:29:12;9.90;99.90
66568;DHT22;53422;49.296;6.900;2024-02-16T00:31:38;9.90;99.90
66568;DHT22;53422;49.296;6.900;2024-02-16T00:34:03;9.80;99.90
66568;DHT22;53422;49.296;6.900;2024-02-16T00:36:29;9.80;99.90
66568;DHT22;53422;49.296;6.900;2024-02-16T00:38:56;9.80;99.90
66568;DHT22;53422;49.296;6.900;2024-02-16T00:41:23;9.90;99.90
66568;DHT22;53422;49.296;6.900;2024-02-16T00:43:50;9.90;99.90
66568;DHT22;53422;49.296;6.900;2024-02-16T00:46:20;9.90;99.90
66568;DHT22;53422;49.296;6.900;2024-02-16T00:48:49;10.00;99.90
66568;DHT22;53422;49.296;6.900;2024-02-16T00:51:14;9.90;99.90
66568;DHT22;53422;49.296;6.900;2024-02-16T00:53:40;9.90;99.90
66568;DHT22;53422;49.296;6.900;2024-02-16T00:56:06;9.90;99.90
66568;DHT22;53422;49.296;6.900;2024-02-16T00:58:33;9.90;99.90
66568;DHT22;53422;49.296;6.900;2024-02-16T01:00:58;9.90;99.90
66568;DHT22;53422;49.296;6.900;2024-02-16T01:03:27;10.00;99.90
66568;DHT22;53422;49.296;6.900;2024-02-16T01:05:58;10.00;99.90
66568;DHT22;53422;49.296;6.900;2024-02-16T01:08:23;10.00;99.90
66568;DHT22;53422;49.296;6.900;2024-02-16T01:10:49;10.00;99.90
66568;DHT22;53422;49.296;6.900;2024-02-16T01:13:15;10.00;99.90
66568;DHT22;53422;49.296;6.900;2024-02-16T01:15:40;10.10;99.90
66568;DHT22;53422;49.296;6.900;2024-02-16T01:18:06;10.10;99.90
66568;DHT22;53422;49.296;6.900;2024-02-16T01:20:32;10.20;99.90
66568;DHT22;53422;49.296;6.900;2024-02-16T01:22:58;10.40;99.90
66568;DHT22;53422;49.296;6.900;2024-02-16T01:25:24;10.30;99.90
66568;DHT22;53422;49.296;6.900;2024-02-16T01:27:49;10.20;99.90
66568;DHT22;53422;49.296;6.900;2024-02-16T01:30:15;10.10;99.90
66568;DHT22;53422;49.296;6.900;2024-02-16T01:32:41;10.10;99.90
66568;DHT22;53422;49.296;6.900;2024-02-16T01:35:07;10.10;99.90
66568;DHT22;53422;49.296;6.900;2024-02-16T01:37:32;10.30;99.90
66568;DHT22;53422;49.296;6.900;2024-02-16T01:39:58;10.30;99.90
66568;DHT22;53422;49.296;6.900;2024-02-16T01:42:24;10.40;99.90
66568;DHT22;53422;49.296;6.900;2024-02-16T01:44:50;10.30;99.90
66568;DHT22;53422;49.296;6.900;2024-02-16T01:47:16;10.20;99.90
66568;DHT22;53422;49.296;6.900;2024-02-16T01:49:44;10.10;99.90
66568;DHT22;53422;49.296;6.900;2024-02-16T01:52:10;10.10;99.90
66568;DHT22;53422;49.296;6.900;2024-02-16T01:54:37;10.20;99.90
66568;DHT22;53422;49.296;6.900;2024-02-16T01:57:05;10.20;99.90
66568;DHT22;53422;49.296;6.900;2024-02-16T01:59:31;10.20;99.90
66568;DHT22;53422;49.296;6.900;2024-02-16T02:01:59;10.30;99.90
66568;DHT22;53422;49.296;6.900;2024-02-16T02:04:25;10.20;99.90
66568;DHT22;53422;49.296;6.900;2024-02-16T02:06:52;10.10;99.90
66568;DHT22;53422;49.296;6.900;2024-02-16T02:09:17;10.20;99.90
66568;DHT22;53422;49.296;6.900;2024-02-16T02:11:44;10.40;99.90
66568;DHT22;53422;49.296;6.900;2024-02-16T02:14:09;10.50;99.90
66568;DHT22;53422;49.296;6.900;2024-02-16T02:16:35;10.50;99.90
66568;DHT22;53422;49.296;6.900;2024-02-16T02:19:03;10.60;99.90
66568;DHT22;53422;49.296;6.900;2024-02-16T02:21:28;10.60;99.90
66568;DHT22;53422;49.296;6.900;2024-02-16T02:23:54;10.50;99.90
66568;DHT22;53422;49.296;6.900;2024-02-16T02:26:20;10.50;99.90
66568;DHT22;53422;49.296;6.900;2024-02-16T02:28:46;10.50;99.90
66568;DHT22;53422;49.296;6.900;2024-02-16T02:31:12;10.60;99.90
66568;DHT22;53422;49.296;6.900;2024-02-16T02:33:38;10.60;99.90
66568;DHT22;53422;49.296;6.900;2024-02-16T02:36:04;10.60;99.90
66568;DHT22;53422;49.296;6.900;2024-02-16T02:38:30;10.50;99.90
66568;DHT22;53422;49.296;6.900;2024-02-16T02:40:56;10.40;99.90
66568;DHT22;53422;49.296;6.900;2024-02-16T02:43:22;10.30;99.90
66568;DHT22;53422;49.296;6.900;2024-02-16T02:45:48;10.30;99.90
66568;DHT22;53422;49.296;6.900;2024-02-16T02:48:14;10.40;99.90
66568;DHT22;53422;49.296;6.900;2024-02-16T02:50:40;10.50;99.90
66568;DHT22;53422;49.296;6.900;2024-02-16T02:53:05;10.50;99.90
66568;DHT22;53422;49.296;6.900;2024-02-16T02:55:31;10.50;99.90
66568;DHT22;53422;49.296;6.900;2024-02-16T02:57:57;10.40;99.90
66568;DHT22;53422;49.296;6.900;2024-02-16T03:00:23;10.40;99.90
66568;DHT22;53422;49.296;6.900;2024-02-16T03:02:49;10.50;99.90
66568;DHT22;53422;49.296;6.900;2024-02-16T03:05:15;10.40;99.90
66568;DHT22;53422;49.296;6.900;2024-02-16T03:07:40;10.50;99.90
66568;DHT22;53422;49.296;6.900;2024-02-16T03:10:07;10.60;99.90
66568;DHT22;53422;49.296;6.900;2024-02-16T03:12:35;10.60;99.90
66568;DHT22;53422;49.296;6.900;2024-02-16T03:15:00;10.60;99.90
66568;DHT22;53422;49.296;6.900;2024-02-16T03:17:26;10.50;99.90
66568;DHT22;53422;49.296;6.900;2024-02-16T03:19:52;10.50;99.90
66568;DHT22;53422;49.296;6.900;2024-02-16T03:22:20;10.50;99.90
66568;DHT22;53422;49.296;6.900;2024-02-16T03:24:46;10.60;99.90
66568;DHT22;53422;49.296;6.900;2024-02-16T03:27:13;10.60;99.90
66568;DHT22;53422;49.296;6.900;2024-02-16T03:29:39;10.50;99.90
66568;DHT22;53422;49.296;6.900;2024-02-16T03:32:05;10.50;99.90
66568;DHT22;53422;49.296;6.900;2024-02-16T03:34:31;10.50;99.90
66568;DHT22;53422;49.296;6.900;2024-02-16T03:36:56;10.60;99.90
66568;DHT22;53422;49.296;6.900;2024-02-16T03:39:24;10.50;99.90
66568;DHT22;53422;49.296;6.900;2024-02-16T03:41:49;10.50;99.90
66568;DHT22;53422;49.296;6.900;2024-02-16T03:44:15;10.40;99.90
66568;DHT22;53422;49.296;6.900;2024-02-16T03:46:43;10.50;99.90
66568;DHT22;53422;49.296;6.900;2024-02-16T03:49:09;10.40;99.90
66568;DHT22;53422;49.296;6.900;2024-02-16T03:51:36;10.40;99.90
66568;DHT22;53422;49.296;6.900;2024-02-16T03:54:03;10.50;99.90
66568;DHT22;53422;49.296;6.900;2024-02-16T03:56:30;10.50;99.90
66568;DHT22;53422;49.296;6.900;2024-02-16T03:58:55;10.50;99.90
66568;DHT22;53422;49.296;6.900;2024-02-16T04:01:21;10.40;99.90
66568;DHT22;53422;49.296;6.900;2024-02-16T04:03:47;10.40;99.90
66568;DHT22;53422;49.296;6.900;2024-02-16T04:06:13;10.40;99.90
66568;DHT22;53422;49.296;6.900;2024-02-16T04:08:38;10.40;99.90
66568;DHT22;53422;49.296;6.900;2024-02-16T04:11:05;10.30;99.90
66568;DHT22;53422;49.296;6.900;2024-02-16T04:13:31;10.40;99.90
66568;DHT22;53422;49.296;6.900;2024-02-16T04:15:58;10.50;99.90
66568;DHT22;53422;49.296;6.900;2024-02-16T04:18:23;10.50;99.90
66568;DHT22;53422;49.296;6.900;2024-02-16T04:20:49;10.60;99.90
66568;DHT22;53422;49.296;6.900;2024-02-16T04:23:15;10.50;99.90
66568;DHT22;53422;49.296;6.900;2024-02-16T04:25:41;10.40;99.90
66568;DHT22;53422;49.296;6.900;2024-02-16T04:28:06;10.40;99.90
66568;DHT22;53422;49.296;6.900;2024-02-16T04:30:32;10.40;99.90
66568;DHT22;53422;49.296;6.900;2024-02-16T04:32:57;10.50;99.90
66568;DHT22;53422;49.296;6.900;2024-02-16T04:35:23;10.50;99.90
66568;DHT22;53422;49.296;6.900;2024-02-16T04:37:49;10.40;99.90
66568;DHT22;53422;49.296;6.900;2024-02-16T04:40:15;10.40;99.90
66568;DHT22;53422;49.296;6.900;2024-02-16T04:42:40;10.40;99.90
66568;DHT22;53422;49.296;6.900;2024-02-16T04:45:07;10.40;99.90
66568;DHT22;53422;49.296;6.900;2024-02-16T04:47:33;10.50;99.90
66568;DHT22;53422;49.296;6.900;2024-02-16T04:49:58;10.40;99.90
66568;DHT22;53422;49.296;6.900;2024-02-16T04:52:24;10.40;99.90
66568;DHT22;53422;49.296;6.900;2024-02-16T04:54:50;10.40;99.90
66568;DHT22;53422;49.296;6.900;2024-02-16T04:57:15;10.50;99.90
66568;DHT22;53422;49.296;6.900;2024-02-16T04:59:41;10.40;99.90
66568;DHT22;53422;49.296;6.900;2024-02-16T05:02:07;10.30;99.90
66568;DHT22;53422;49.296;6.900;2024-02-16T05:04:32;10.50;99.90
66568;DHT22;53422;49.296;6.900;2024-02-16T05:06:58;10.40;99.90
66568;DHT22;53422;49.296;6.900;2024-02-16T05:09:24;10.30;99.90
66568;DHT22;53422;49.296;6.900;2024-02-16T05:11:52;10.40;99.90
66568;DHT22;53422;49.296;6.900;2024-02-16T05:14:17;10.30;99.90
66568;DHT22;53422;49.296;6.900;2024-02-16T05:16:44;10.30;99.90
66568;DHT22;53422;49.296;6.900;2024-02-16T05:19:10;10.40;99.90
66568;DHT22;53422;49.296;6.900;2024-02-16T05:21:35;10.30;99.90
66568;DHT22;53422;49.296;6.900;2024-02-16T05:24:01;10.20;99.90
66568;DHT22;53422;49.296;6.900;2024-02-16T05:26:28;10.30;99.90
66568;DHT22;53422;49.296;6.900;2024-02-16T05:28:53;10.30;99.90
66568;DHT22;53422;49.296;6.900;2024-02-16T05:31:19;10.30;99.90
66568;DHT22;53422;49.296;6.900;2024-02-16T05:33:47;10.40;99.90
66568;DHT22;53422;49.296;6.900;2024-02-16T05:36:34;10.40;99.90
66568;DHT22;53422;49.296;6.900;2024-02-16T05:39:01;10.50;99.90
66568;DHT22;53422;49.296;6.900;2024-02-16T05:41:36;10.50;99.90
66568;DHT22;53422;49.296;6.900;2024-02-16T05:44:03;10.50;99.90
66568;DHT22;53422;49.296;6.900;2024-02-16T05:46:30;10.50;99.90
66568;DHT22;53422;49.296;6.900;2024-02-16T05:48:56;10.50;99.90
66568;DHT22;53422;49.296;6.900;2024-02-16T05:51:26;10.50;99.90
66568;DHT22;53422;49.296;6.900;2024-02-16T05:54:05;10.40;99.90
66568;DHT22;53422;49.296;6.900;2024-02-16T05:56:31;10.40;99.90
66568;DHT22;53422;49.296;6.900;2024-02-16T05:58:59;10.30;99.90
66568;DHT22;53422;49.296;6.900;2024-02-16T06:01:26;10.40;99.90
66568;DHT22;53422;49.296;6.900;2024-02-16T06:03:53;10.40;99.90
66568;DHT22;53422;49.296;6.900;2024-02-16T06:06:18;10.40;99.90
66568;DHT22;53422;49.296;6.900;2024-02-16T06:08:44;10.40;99.90
66568;DHT22;53422;49.296;6.900;2024-02-16T06:11:10;10.50;99.90
66568;DHT22;53422;49.296;6.900;2024-02-16T06:13:36;10.50;99.90
66568;DHT22;53422;49.296;6.900;2024-02-16T06:16:05;10.50;99.90
66568;DHT22;53422;49.296;6.900;2024-02-16T06:18:34;10.40;99.90
66568;DHT22;53422;49.296;6.900;2024-02-16T06:21:00;10.40;99.90
66568;DHT22;53422;49.296;6.900;2024-02-16T06:23:25;10.40;99.90
66568;DHT22;53422;49.296;6.900;2024-02-16T06:25:51;10.30;99.90
66568;DHT22;53422;49.296;6.900;2024-02-16T06:28:17;10.30;99.90
66568;DHT22;53422;49.296;6.900;2024-02-16T06:30:43;10.30;99.90
66568;DHT22;53422;49.296;6.900;2024-02-16T06:33:08;10.30;99.90
66568;DHT22;53422;49.296;6.900;2024-02-16T06:35:35;10.30;99.90
66568;DHT22;53422;49.296;6.900;2024-02-16T06:38:01;10.30;99.90
66568;DHT22;53422;49.296;6.900;2024-02-16T06:40:27;10.30;99.90
66568;DHT22;53422;49.296;6.900;2024-02-16T06:42:53;10.20;99.90
66568;DHT22;53422;49.296;6.900;2024-02-16T06:45:19;10.20;99.90
66568;DHT22;53422;49.296;6.900;2024-02-16T06:47:45;10.20;99.90
66568;DHT22;53422;49.296;6.900;2024-02-16T06:50:12;10.20;99.90
66568;DHT22;53422;49.296;6.900;2024-02-16T06:52:38;10.30;99.90
66568;DHT22;53422;49.296;6.900;2024-02-16T06:55:04;10.30;99.90
66568;DHT22;53422;49.296;6.900;2024-02-16T06:57:29;10.30;99.90
66568;DHT22;53422;49.296;6.900;2024-02-16T06:59:57;10.30;99.90
66568;DHT22;53422;49.296;6.900;2024-02-16T07:02:23;10.30;99.90
66568;DHT22;53422;49.296;6.900;2024-02-16T07:04:49;10.30;99.90
66568;DHT22;53422;49.296;6.900;2024-02-16T07:07:15;10.30;99.90
66568;DHT22;53422;49.296;6.900;2024-02-16T07:09:40;10.20;99.90
66568;DHT22;53422;49.296;6.900;2024-02-16T07:12:07;10.20;99.90
66568;DHT22;53422;49.296;6.900;2024-02-16T07:14:33;10.20;99.90
66568;DHT22;53422;49.296;6.900;2024-02-16T07:16:58;10.20;99.90
66568;DHT22;53422;49.296;6.900;2024-02-16T07:19:24;10.20;99.90
66568;DHT22;53422;49.296;6.900;2024-02-16T07:21:50;10.20;99.90
66568;DHT22;53422;49.296;6.900;2024-02-16T07:24:17;10.30;99.90
66568;DHT22;53422;49.296;6.900;2024-02-16T07:26:43;10.30;99.90
66568;DHT22;53422;49.296;6.900;2024-02-16T07:29:09;10.20;99.90
66568;DHT22;53422;49.296;6.900;2024-02-16T07:31:35;10.30;99.90
66568;DHT22;53422;49.296;6.900;2024-02-16T07:34:02;10.20;99.90
66568;DHT22;53422;49.296;6.900;2024-02-16T07:36:28;10.20;99.90
66568;DHT22;53422;49.296;6.900;2024-02-16T07:38:54;10.30;99.90
66568;DHT22;53422;49.296;6.900;2024-02-16T07:41:20;10.30;99.90
66568;DHT22;53422;49.296;6.900;2024-02-16T07:43:46;10.30;99.90
66568;DHT22;53422;49.296;6.900;2024-02-16T07:46:11;10.30;99.90
66568;DHT22;53422;49.296;6.900;2024-02-16T07:48:38;10.40;99.90
66568;DHT22;53422;49.296;6.900;2024-02-16T07:51:04;10.40;99.90
66568;DHT22;53422;49.296;6.900;2024-02-16T07:53:31;10.40;99.90
66568;DHT22;53422;49.296;6.900;2024-02-16T07:55:56;10.40;99.90
66568;DHT22;53422;49.296;6.900;2024-02-16T07:58:24;10.40;99.90
66568;DHT22;53422;49.296;6.900;2024-02-16T08:00:49;10.40;99.90
66568;DHT22;53422;49.296;6.900;2024-02-16T08:03:16;10.60;99.90
66568;DHT22;53422;49.296;6.900;2024-02-16T08:05:41;10.50;99.90
66568;DHT22;53422;49.296;6.900;2024-02-16T08:08:07;10.50;99.90
66568;DHT22;53422;49.296;6.900;2024-02-16T08:10:33;10.40;99.90
66568;DHT22;53422;49.296;6.900;2024-02-16T08:13:00;10.50;99.90
66568;DHT22;53422;49.296;6.900;2024-02-16T08:15:25;10.50;99.90
66568;DHT22;53422;49.296;6.900;2024-02-16T08:17:51;10.50;99.90
66568;DHT22;53422;49.296;6.900;2024-02-16T08:20:20;10.60;99.90
66568;DHT22;53422;49.296;6.900;2024-02-16T08:22:46;10.60;99.90
66568;DHT22;53422;49.296;6.900;2024-02-16T08:25:12;10.50;99.90
66568;DHT22;53422;49.296;6.900;2024-02-16T08:27:37;10.50;99.90
66568;DHT22;53422;49.296;6.900;2024-02-16T08:30:04;10.70;99.90
66568;DHT22;53422;49.296;6.900;2024-02-16T08:32:30;10.70;99.90
66568;DHT22;53422;49.296;6.900;2024-02-16T08:34:55;10.80;99.90
66568;DHT22;53422;49.296;6.900;2024-02-16T08:37:21;10.80;99.90
66568;DHT22;53422;49.296;6.900;2024-02-16T08:39:47;10.80;99.90
66568;DHT22;53422;49.296;6.900;2024-02-16T08:42:13;10.80;99.90
66568;DHT22;53422;49.296;6.900;2024-02-16T08:44:39;10.70;99.90
66568;DHT22;53422;49.296;6.900;2024-02-16T08:47:06;10.70;99.90
66568;DHT22;53422;49.296;6.900;2024-02-16T08:49:33;10.90;99.90
66568;DHT22;53422;49.296;6.900;2024-02-16T08:51:59;10.80;99.90
66568;DHT22;53422;49.296;6.900;2024-02-16T08:54:24;10.80;99.90
66568;DHT22;53422;49.296;6.900;2024-02-16T08:56:51;11.00;99.90
66568;DHT22;53422;49.296;6.900;2024-02-16T08:59:17;11.00;99.90
66568;DHT22;53422;49.296;6.900;2024-02-16T09:01:46;11.00;99.90
66568;DHT22;53422;49.296;6.900;2024-02-16T09:04:12;10.90;99.90
66568;DHT22;53422;49.296;6.900;2024-02-16T09:06:37;11.00;99.90
66568;DHT22;53422;49.296;6.900;2024-02-16T09:09:04;10.90;99.90
66568;DHT22;53422;49.296;6.900;2024-02-16T09:11:32;11.00;99.90
66568;DHT22;53422;49.296;6.900;2024-02-16T09:13:58;11.20;99.90
66568;DHT22;53422;49.296;6.900;2024-02-16T09:16:23;11.30;99.90
66568;DHT22;53422;49.296;6.900;2024-02-16T09:18:49;11.30;99.90
66568;DHT22;53422;49.296;6.900;2024-02-16T09:21:15;11.20;99.90
66568;DHT22;53422;49.296;6.900;2024-02-16T09:23:41;11.20;99.90
66568;DHT22;53422;49.296;6.900;2024-02-16T09:26:07;11.20;99.90
66568;DHT22;53422;49.296;6.900;2024-02-16T09:28:39;11.10;99.90
66568;DHT22;53422;49.296;6.900;2024-02-16T09:31:06;11.30;99.90
66568;DHT22;53422;49.296;6.900;2024-02-16T09:33:33;11.50;99.90
66568;DHT22;53422;49.296;6.900;2024-02-16T09:35:59;11.50;99.90
66568;DHT22;53422;49.296;6.900;2024-02-16T09:38:25;11.50;99.90
66568;DHT22;53422;49.296;6.900;2024-02-16T09:40:50;11.50;99.90
66568;DHT22;53422;49.296;6.900;2024-02-16T09:43:26;11.40;99.90
66568;DHT22;53422;49.296;6.900;2024-02-16T09:45:57;11.30;99.90
66568;DHT22;53422;49.296;6.900;2024-02-16T09:48:26;11.50;99.90
66568;DHT22;53422;49.296;6.900;2024-02-16T09:50:56;11.40;99.90
66568;DHT22;53422;49.296;6.900;2024-02-16T09:53:25;11.30;99.90
66568;DHT22;53422;49.296;6.900;2024-02-16T09:55:52;11.40;99.90
66568;DHT22;53422;49.296;6.900;2024-02-16T09:58:18;11.50;99.90
66568;DHT22;53422;49.296;6.900;2024-02-16T10:00:54;11.50;99.90
66568;DHT22;53422;49.296;6.900;2024-02-16T10:03:31;11.40;99.90
66568;DHT22;53422;49.296;6.900;2024-02-16T10:06:06;11.40;99.90
66568;DHT22;53422;49.296;6.900;2024-02-16T10:08:33;11.50;99.90
66568;DHT22;53422;49.296;6.900;2024-02-16T10:11:04;11.60;99.90
66568;DHT22;53422;49.296;6.900;2024-02-16T10:13:31;11.60;99.90
66568;DHT22;53422;49.296;6.900;2024-02-16T10:16:07;11.50;99.90
66568;DHT22;53422;49.296;6.900;2024-02-16T10:18:38;11.60;99.90
66568;DHT22;53422;49.296;6.900;2024-02-16T10:21:04;11.60;99.90
66568;DHT22;53422;49.296;6.900;2024-02-16T10:23:30;11.60;99.90
66568;DHT22;53422;49.296;6.900;2024-02-16T10:25:56;11.70;99.90
66568;DHT22;53422;49.296;6.900;2024-02-16T10:28:24;11.80;99.90
66568;DHT22;53422;49.296;6.900;2024-02-16T10:31:00;11.80;99.90
66568;DHT22;53422;49.296;6.900;2024-02-16T10:33:31;11.70;99.90
66568;DHT22;53422;49.296;6.900;2024-02-16T10:35:58;11.60;99.90
66568;DHT22;53422;49.296;6.900;2024-02-16T10:38:25;11.60;99.90
66568;DHT22;53422;49.296;6.900;2024-02-16T10:40:53;11.70;99.90
66568;DHT22;53422;49.296;6.900;2024-02-16T10:43:20;11.80;99.90
66568;DHT22;53422;49.296;6.900;2024-02-16T10:45:47;11.80;99.90
66568;DHT22;53422;49.296;6.900;2024-02-16T10:48:18;11.70;99.90
66568;DHT22;53422;49.296;6.900;2024-02-16T10:50:44;11.80;99.90
66568;DHT22;53422;49.296;6.900;2024-02-16T10:53:21;11.90;99.90
66568;DHT22;53422;49.296;6.900;2024-02-16T10:55:49;11.90;99.90
66568;DHT22;53422;49.296;6.900;2024-02-16T10:58:17;11.90;99.90
66568;DHT22;53422;49.296;6.900;2024-02-16T11:00:52;12.00;99.90
66568;DHT22;53422;49.296;6.900;2024-02-16T11:03:23;11.90;99.90
66568;DHT22;53422;49.296;6.900;2024-02-16T11:05:50;12.00;99.90
66568;DHT22;53422;49.296;6.900;2024-02-16T11:08:17;12.00;99.90
66568;DHT22;53422;49.296;6.900;2024-02-16T11:11:00;12.00;99.90
66568;DHT22;53422;49.296;6.900;2024-02-16T11:13:32;12.10;99.90
66568;DHT22;53422;49.296;6.900;2024-02-16T11:16:02;12.00;99.90
66568;DHT22;53422;49.296;6.900;2024-02-16T11:18:29;11.90;99.90
66568;DHT22;53422;49.296;6.900;2024-02-16T11:20:55;12.10;99.90
66568;DHT22;53422;49.296;6.900;2024-02-16T11:23:27;12.10;99.90
66568;DHT22;53422;49.296;6.900;2024-02-16T11:25:54;12.10;99.90
66568;DHT22;53422;49.296;6.900;2024-02-16T11:28:20;12.10;99.90
66568;DHT22;53422;49.296;6.900;2024-02-16T11:30:46;12.10;99.90
66568;DHT22;53422;49.296;6.900;2024-02-16T11:33:12;12.10;99.90
66568;DHT22;53422;49.296;6.900;2024-02-16T11:35:37;12.10;99.90
66568;DHT22;53422;49.296;6.900;2024-02-16T11:38:04;12.20;99.90
66568;DHT22;53422;49.296;6.900;2024-02-16T11:40:30;12.30;99.90
66568;DHT22;53422;49.296;6.900;2024-02-16T11:43:02;12.30;99.90
66568;DHT22;53422;49.296;6.900;2024-02-16T11:45:28;12.20;99.90
66568;DHT22;53422;49.296;6.900;2024-02-16T11:48:06;12.20;99.90
66568;DHT22;53422;49.296;6.900;2024-02-16T11:50:32;12.20;99.90
66568;DHT22;53422;49.296;6.900;2024-02-16T11:52:58;12.10;99.90
66568;DHT22;53422;49.296;6.900;2024-02-16T11:55:24;12.10;99.90
66568;DHT22;53422;49.296;6.900;2024-02-16T11:57:50;12.10;99.90
66568;DHT22;53422;49.296;6.900;2024-02-16T12:00:16;12.30;99.90
66568;DHT22;53422;49.296;6.900;2024-02-16T12:02:42;12.40;99.90
66568;DHT22;53422;49.296;6.900;2024-02-16T12:05:08;12.30;99.90
66568;DHT22;53422;49.296;6.900;2024-02-16T12:07:37;12.30;99.90
66568;DHT22;53422;49.296;6.900;2024-02-16T12:10:06;12.30;99.90
66568;DHT22;53422;49.296;6.900;2024-02-16T12:12:32;12.50;99.90
66568;DHT22;53422;49.296;6.900;2024-02-16T12:14:58;12.50;99.90
66568;DHT22;53422;49.296;6.900;2024-02-16T12:17:24;12.50;99.90
66568;DHT22;53422;49.296;6.900;2024-02-16T12:19:52;12.50;99.90
66568;DHT22;53422;49.296;6.900;2024-02-16T12:22:18;12.50;99.90
66568;DHT22;53422;49.296;6.900;2024-02-16T12:24:45;12.50;99.90
66568;DHT22;53422;49.296;6.900;2024-02-16T12:27:11;12.60;99.90
66568;DHT22;53422;49.296;6.900;2024-02-16T12:29:38;12.60;99.90
66568;DHT22;53422;49.296;6.900;2024-02-16T12:32:05;12.50;99.90
66568;DHT22;53422;49.296;6.900;2024-02-16T12:34:30;12.50;99.90
66568;DHT22;53422;49.296;6.900;2024-02-16T12:36:56;12.40;99.90
66568;DHT22;53422;49.296;6.900;2024-02-16T12:39:22;12.50;99.90
66568;DHT22;53422;49.296;6.900;2024-02-16T12:41:48;12.50;99.90
66568;DHT22;53422;49.296;6.900;2024-02-16T12:44:15;12.60;99.90
66568;DHT22;53422;49.296;6.900;2024-02-16T12:46:40;12.60;99.90
66568;DHT22;53422;49.296;6.900;2024-02-16T12:49:08;12.60;99.90
66568;DHT22;53422;49.296;6.900;2024-02-16T12:51:34;12.50;99.90
66568;DHT22;53422;49.296;6.900;2024-02-16T12:54:00;12.60;99.90
66568;DHT22;53422;49.296;6.900;2024-02-16T12:56:30;12.60;99.90
66568;DHT22;53422;49.296;6.900;2024-02-16T12:58:56;12.60;99.90
66568;DHT22;53422;49.296;6.900;2024-02-16T13:01:22;12.60;99.90
66568;DHT22;53422;49.296;6.900;2024-02-16T13:03:48;12.60;99.90
66568;DHT22;53422;49.296;6.900;2024-02-16T13:06:13;12.60;99.90
66568;DHT22;53422;49.296;6.900;2024-02-16T13:08:39;12.70;99.90
66568;DHT22;53422;49.296;6.900;2024-02-16T13:11:05;12.60;99.90
66568;DHT22;53422;49.296;6.900;2024-02-16T13:13:30;12.60;99.90
66568;DHT22;53422;49.296;6.900;2024-02-16T13:15:57;12.60;99.90
66568;DHT22;53422;49.296;6.900;2024-02-16T13:18:24;12.60;99.90
66568;DHT22;53422;49.296;6.900;2024-02-16T13:20:50;12.60;99.90
66568;DHT22;53422;49.296;6.900;2024-02-16T13:23:16;12.60;99.90
66568;DHT22;53422;49.296;6.900;2024-02-16T13:25:41;12.60;99.90
66568;DHT22;53422;49.296;6.900;2024-02-16T13:28:08;12.60;99.90
66568;DHT22;53422;49.296;6.900;2024-02-16T13:30:33;12.60;99.90
66568;DHT22;53422;49.296;6.900;2024-02-16T13:32:59;12.60;99.90
66568;DHT22;53422;49.296;6.900;2024-02-16T13:35:25;12.60;99.90
66568;DHT22;53422;49.296;6.900;2024-02-16T13:37:51;12.70;99.90
66568;DHT22;53422;49.296;6.900;2024-02-16T13:40:17;12.60;99.90
66568;DHT22;53422;49.296;6.900;2024-02-16T13:42:44;12.60;99.90
66568;DHT22;53422;49.296;6.900;2024-02-16T13:45:11;12.60;99.90
66568;DHT22;53422;49.296;6.900;2024-02-16T13:47:37;12.70;99.90
66568;DHT22;53422;49.296;6.900;2024-02-16T13:50:06;12.60;99.90
66568;DHT22;53422;49.296;6.900;2024-02-16T13:52:32;12.60;99.90
66568;DHT22;53422;49.296;6.900;2024-02-16T13:54:58;12.60;99.90
66568;DHT22;53422;49.296;6.900;2024-02-16T13:57:23;12.60;99.90
66568;DHT22;53422;49.296;6.900;2024-02-16T13:59:49;12.50;99.90
66568;DHT22;53422;49.296;6.900;2024-02-16T14:02:15;12.50;99.90
66568;DHT22;53422;49.296;6.900;2024-02-16T14:04:41;12.60;99.90
66568;DHT22;53422;49.296;6.900;2024-02-16T14:07:07;12.60;99.90
66568;DHT22;53422;49.296;6.900;2024-02-16T14:09:33;12.60;99.90
66568;DHT22;53422;49.296;6.900;2024-02-16T14:11:58;12.70;99.90
66568;DHT22;53422;49.296;6.900;2024-02-16T14:14:25;12.60;99.90
66568;DHT22;53422;49.296;6.900;2024-02-16T14:16:51;12.60;99.90
66568;DHT22;53422;49.296;6.900;2024-02-16T14:19:17;12.60;99.90
66568;DHT22;53422;49.296;6.900;2024-02-16T14:21:43;12.50;99.90
66568;DHT22;53422;49.296;6.900;2024-02-16T14:24:09;12.50;99.90
66568;DHT22;53422;49.296;6.900;2024-02-16T14:26:36;12.60;99.90
66568;DHT22;53422;49.296;6.900;2024-02-16T14:29:04;12.50;99.90
66568;DHT22;53422;49.296;6.900;2024-02-16T14:31:30;12.40;99.90
66568;DHT22;53422;49.296;6.900;2024-02-16T14:33:56;12.40;99.90
66568;DHT22;53422;49.296;6.900;2024-02-16T14:36:22;12.40;99.90
66568;DHT22;53422;49.296;6.900;2024-02-16T14:38:48;12.50;99.90
66568;DHT22;53422;49.296;6.900;2024-02-16T14:41:14;12.50;99.90
66568;DHT22;53422;49.296;6.900;2024-02-16T14:43:42;12.40;99.90
66568;DHT22;53422;49.296;6.900;2024-02-16T14:46:08;12.50;99.90
66568;DHT22;53422;49.296;6.900;2024-02-16T14:48:35;12.50;99.90
66568;DHT22;53422;49.296;6.900;2024-02-16T14:51:01;12.60;99.90
66568;DHT22;53422;49.296;6.900;2024-02-16T14:53:27;12.50;99.90
66568;DHT22;53422;49.296;6.900;2024-02-16T14:55:56;12.40;99.90
66568;DHT22;53422;49.296;6.900;2024-02-16T14:58:21;12.40;99.90
66568;DHT22;53422;49.296;6.900;2024-02-16T15:00:47;12.40;99.90
66568;DHT22;53422;49.296;6.900;2024-02-16T15:03:15;12.40;99.90
66568;DHT22;53422;49.296;6.900;2024-02-16T15:05:41;12.40;99.90
66568;DHT22;53422;49.296;6.900;2024-02-16T15:08:07;12.40;99.90
66568;DHT22;53422;49.296;6.900;2024-02-16T15:10:32;12.40;99.90
66568;DHT22;53422;49.296;6.900;2024-02-16T15:12:58;12.30;99.90
66568;DHT22;53422;49.296;6.900;2024-02-16T15:15:24;12.30;99.90
66568;DHT22;53422;49.296;6.900;2024-02-16T15:17:50;12.30;99.90
66568;DHT22;53422;49.296;6.900;2024-02-16T15:20:16;12.30;99.90
66568;DHT22;53422;49.296;6.900;2024-02-16T15:22:41;12.30;99.90
66568;DHT22;53422;49.296;6.900;2024-02-16T15:25:10;12.30;99.90
66568;DHT22;53422;49.296;6.900;2024-02-16T15:27:36;12.40;99.90